< < Back
Terminal Aerodrome Forecast


Current Version              Previous Versions:   1  2  3  4  5  6  7  8  9  

Terminal Aerodrome Forecast

888
FTUS42 KCHS 211100
TAFSAV
TAF
KSAV 211139Z 2112/2212 VRB05KT P6SM FEW050=

Latest METAR

388
SAUS80 KWBC 221100 RRB
MTRSAV
METAR KSAV 221053Z 26003KT 10SM FEW200 24/22 A3003 RMK AO2 SLP168
T02440217


USA.gov is the U.S. government's official web portal to all federal, state and local government web resources and services.